Terminal Aerodrome Forecast
Issued by NWS Charleston, WV

Home | Current Version | Previous Version | Text Only | Print | Product List | Glossary On
Versions: 1 2 3 4 5 6 7 8 9 10 11 12 13 14 15 16 17 18 19 20 21 22 23 24 25 26 27 28 29
451
FTUS41 KRLX 202323
TAFEKN
TAF
KEKN 202323Z 2100/2124 00000KT P6SM SCT250
     FM210400 00000KT 4SM BR BKN250
     FM210500 00000KT 1SM BR SCT001
     FM210600 00000KT 1/4SM FG VV001
     FM211300 00000KT 2SM BR BKN002
     FM211400 00000KT P6SM BKN200
     FM211600 VRB03KT P6SM SCT025
     FM211800 22004KT P6SM SCT035
     FM212300 00000KT P6SM OVC140=

USA.gov is the U.S. government's official web portal to all federal, state and local government web resources and services.